Airfield :
LOGIN :

Register | Disclaimer

   EN    FR    IT 

 










Legend :    VFR   Marginal VFR   IFR   Intensive IFR   Very Intensive IFR
Visi :
Ceiling :
>= 8 km
>= 3000ft
5 to 8 km
1000 to 3000 ft
1500m to 5 km
500 to 1000 ft
800 to 1500m
200 to 500 ft
< 800m
< 200 ft
Symbols :   Thunderstorms  Fog  Heavy snow  Heavy precipitations  Wind > 20 kt
SIGMETs :     Misc.  Thunderstorms  Icing  Turbulence  Mountain Waves  Volcanic Ashes






- Airport Elevation : 5600 ft
- IATA code : SMV


LSZS - Samedan

CURRENT METAR :
  • 021350Z 33011KT 9999 -SG SCT042 SCT055 00/M09 Q1022 WS R03 RMK O TL170

EXPIRED METARs :
  • 021320Z 33013KT 310V020 9999 SCT042 SCT055 00/M09 Q1022 WS R03 RMK N TL170
  • 021250Z 34014G30KT 300V020 9999 FEW042 SCT055 01/M09 Q1022 WS R03 RMK M TL170
  • 021220Z 35016G31KT 320V020 9999 FEW042 SCT055 00/M09 Q1022 WS R03 RMK L TL170
  • 021150Z 33014G25KT 300V020 9999 FEW042 SCT055 00/M10 Q1022 WS R03 RMK K TL170
  • 021120Z 34016G28KT 9999 -SG SCT042 00/M10 Q1022 WS R03 RMK J TL170

TAF TAF LSZS
Valid from the 02 at 12:00 until the 02 at 21:00 UTC


021125Z 0212/0221 36015G28KT 9999 -SN SCT042 TX01/0214Z
TEMPO 0212/0220 4000
ATIS : +41 81 834 93 24



MET'MAP, your aeronautical weather chart ! - Copyright ORBIFLY December 2007 - Disclaimer

ORBIFLY MET'MAP TEAM :

Programming & Development : Alexandra Zaïnal
Original concept : Baudouin d'Aumeries
Technical & hardware support : Manuel Goepfert
Assistance : Marc-Olivier Méhu




SOURCES & CREDITS :

   NOAA